Eagle — WBP2187 — position and weather

sailwx.info

Track history (hours):
 
Tides and Currents Weather Stations Pressure Air Temp Water Temp Dewpoint Dewpoint Depression Visibility Wind Speed Wind Dir Waves Ship Positions

Eagle

Owner: Harley Marine Services, INC, SEATTLE, WA. More information available from US FCC via Universal Licensing System and Coast Guard Vessel Documentation Center.

Last reported at 2017-Jan-19 10:32 UTC. Time now 2017-Jan-20 05:53 UTC.
Position N 48°50' W 122°46'.

Length 32 m; draft 4.5 m.

Type: Tow > 200 m length. MMSI: 366978690.

Date/timePositionNaut miles runAvg speedWind from/ knotsBaromVisibWave heightAir tempDewpointWater temp
2017-Jan-19 10:32N 48°50' W 122°46'3 2.6
2017-Jan-19 09:25N 48°47' W 122°47'3 2.9
2017-Jan-19 08:19N 48°51' W 122°47'3 3.9
2017-Jan-19 07:33N 48°48' W 122°46'7 6.8
2017-Jan-19 06:33N 48°41' W 122°43'8 7.6
2017-Jan-19 05:33N 48°34' W 122°45'6 6.1
2017-Jan-19 04:33N 48°32' W 122°36'0 0.2
2017-Jan-19 03:33N 48°31' W 122°36'0 0.0
2017-Jan-19 02:33N 48°31' W 122°36'0 0.0
2017-Jan-19 01:33N 48°31' W 122°36'0 0.0
2017-Jan-19 00:33N 48°31' W 122°36'0 0.0
2017-Jan-18 23:32N 48°31' W 122°36'0 0.0
2017-Jan-18 22:32N 48°31' W 122°36'0 0.0
2017-Jan-18 21:32N 48°31' W 122°36'0 0.0
2017-Jan-18 20:32N 48°31' W 122°36'0 0.0
2017-Jan-18 19:32N 48°31' W 122°36'0 0.0
2017-Jan-18 18:32N 48°31' W 122°36'0 0.0
2017-Jan-18 17:32N 48°31' W 122°36'0 0.0
2017-Jan-18 16:32N 48°31' W 122°36'0 0.0
2017-Jan-18 15:32N 48°31' W 122°36'0 0.0
2017-Jan-18 14:32N 48°31' W 122°36'0 0.0
2017-Jan-18 13:14N 48°31' W 122°36'0 0.0
2017-Jan-18 12:32N 48°31' W 122°36'0 0.0
2017-Jan-18 11:32N 48°31' W 122°36'0 0.0
2017-Jan-18 10:32N 48°31' W 122°36'0 0.0
2017-Jan-18 09:32N 48°31' W 122°36'0 0.0
2017-Jan-18 08:32N 48°31' W 122°36'0 0.0
2017-Jan-18 07:26N 48°31' W 122°36'0 0.0
2017-Jan-18 06:32N 48°31' W 122°36'0 0.0
2017-Jan-18 05:32N 48°31' W 122°36'0 0.0
2017-Jan-18 04:32N 48°31' W 122°36'0 0.0
2017-Jan-18 03:32N 48°31' W 122°36'0 0.0
2017-Jan-18 02:26N 48°31' W 122°36'0 0.0
2017-Jan-18 01:32N 48°31' W 122°36'0 0.0
2017-Jan-18 00:32N 48°31' W 122°36'0 0.0
2017-Jan-17 23:32N 48°31' W 122°36'0 0.0
2017-Jan-17 22:32N 48°31' W 122°36'0 0.0
2017-Jan-17 21:32N 48°31' W 122°36'0 0.3
2017-Jan-17 20:33N 48°32' W 122°36'4 4.2
2017-Jan-17 19:33N 48°36' W 122°36'7 7.1
2017-Jan-17 18:33N 48°42' W 122°43'7 6.5
2017-Jan-17 17:30N 48°48' W 122°45'1 0.7
2017-Jan-17 16:25N 48°48' W 122°44'2 1.9
2017-Jan-17 15:17N 48°50' W 122°45'1 1.2
2017-Jan-17 14:12N 48°51' W 122°47'4 5.2
2017-Jan-17 13:23N 48°46' W 122°47'7 7.9
2017-Jan-17 12:33N 48°41' W 122°42'7 7.3
2017-Jan-17 11:33N 48°33' W 122°45'6 6.1
2017-Jan-17 10:33N 48°27' W 122°44'27 6.5
2017-Jan-17 06:30N 48°01' W 122°37'9 9.2
2017-Jan-17 05:33N 47°54' W 122°29'8 8.3
2017-Jan-17 04:33N 47°46' W 122°26'8 7.6
2017-Jan-17 03:33N 47°39' W 122°27'6 5.8
2017-Jan-17 02:33N 47°35' W 122°21'0 0.2
2017-Jan-17 01:32N 47°34' W 122°21'0 0.0
2017-Jan-17 00:32N 47°34' W 122°21'0 0.0
2017-Jan-16 23:32N 47°34' W 122°21'0 0.0
2017-Jan-16 22:31N 47°34' W 122°21'0 0.0
2017-Jan-16 21:32N 47°34' W 122°21'0 0.0
2017-Jan-16 20:32N 47°34' W 122°21'0 0.0
2017-Jan-16 19:32N 47°34' W 122°21'0 0.1
2017-Jan-16 18:32N 47°34' W 122°21'0 0.0
2017-Jan-16 17:32N 47°34' W 122°21'0 0.0
2017-Jan-16 16:32N 47°34' W 122°21'0 0.0
2017-Jan-16 15:32N 47°34' W 122°21'0 0.0
2017-Jan-16 14:31N 47°34' W 122°21'0 0.0
2017-Jan-16 13:31N 47°34' W 122°21'0 0.0
2017-Jan-16 12:31N 47°34' W 122°21'0 0.0
2017-Jan-16 11:31N 47°34' W 122°21'0 0.0
2017-Jan-16 10:29N 47°34' W 122°21'0 0.0
2017-Jan-16 09:31N 47°34' W 122°21'0 0.0
2017-Jan-16 08:31N 47°34' W 122°21'0 0.0
2017-Jan-16 07:31N 47°34' W 122°21'0 0.0
2017-Jan-16 06:31N 47°34' W 122°21'0 0.0
2017-Jan-16 05:31N 47°34' W 122°21'0 0.0
2017-Jan-16 04:32N 47°34' W 122°21'0 0.0
2017-Jan-16 03:31N 47°34' W 122°21'0 0.0
2017-Jan-16 02:31N 47°34' W 122°21'0 0.0
2017-Jan-16 01:31N 47°34' W 122°21'0 0.0
2017-Jan-16 00:31N 47°34' W 122°21'0 0.0
2017-Jan-15 23:31N 47°34' W 122°21'0 0.0
2017-Jan-15 22:33N 47°34' W 122°21'0 0.0
2017-Jan-15 21:33N 47°34' W 122°21'0 0.0
2017-Jan-15 20:33N 47°34' W 122°21'0 0.0
2017-Jan-15 19:33N 47°34' W 122°21'0 0.0
2017-Jan-15 18:33N 47°34' W 122°21'0 0.0
2017-Jan-15 17:33N 47°34' W 122°21'0 0.0
2017-Jan-15 16:33N 47°34' W 122°21'0 0.0
2017-Jan-15 15:33N 47°34' W 122°21'0 0.0
2017-Jan-15 14:33N 47°34' W 122°21'1 1.0
2017-Jan-15 13:33N 47°35' W 122°21'0 0.0
2017-Jan-15 12:33N 47°35' W 122°21'0 0.0
2017-Jan-15 11:33N 47°35' W 122°21'0 0.0
2017-Jan-15 10:33N 47°35' W 122°21'0 0.0
2017-Jan-15 09:33N 47°35' W 122°21'0 0.0
2017-Jan-15 08:33N 47°35' W 122°21'0 0.0
2017-Jan-15 07:33N 47°35' W 122°21'0 0.0
2017-Jan-15 06:33N 47°35' W 122°21'0 0.0
2017-Jan-15 05:33N 47°35' W 122°21'0 0.0
2017-Jan-15 04:33N 47°35' W 122°21'0 0.0
2017-Jan-15 03:33N 47°35' W 122°21'0 0.0
2017-Jan-15 02:33N 47°35' W 122°21'0 0.0
2017-Jan-15 01:33N 47°35' W 122°21'0 0.0
2017-Jan-15 00:33N 47°35' W 122°21'0 0.0
2017-Jan-14 23:33N 47°35' W 122°21'0 0.0
2017-Jan-14 22:33N 47°35' W 122°21'0 0.0
2017-Jan-14 21:33N 47°35' W 122°21'0 0.0
2017-Jan-14 20:33N 47°35' W 122°21'0 0.0
2017-Jan-14 19:33N 47°35' W 122°21'0 0.0
2017-Jan-14 18:33N 47°35' W 122°21'0 0.0
2017-Jan-14 17:33N 47°35' W 122°21'0 0.0
2017-Jan-14 16:33N 47°35' W 122°21'0 0.0
2017-Jan-14 15:33N 47°35' W 122°21'0 0.0
2017-Jan-14 14:33N 47°35' W 122°21'0 0.0
2017-Jan-14 13:33N 47°35' W 122°21'0 0.0
2017-Jan-14 12:33N 47°35' W 122°21'0 0.0
2017-Jan-14 11:33N 47°35' W 122°21'0 0.0
2017-Jan-14 10:33N 47°35' W 122°21'0 0.0
2017-Jan-14 09:33N 47°35' W 122°21'0 0.0
2017-Jan-14 08:33N 47°35' W 122°21'0 0.0
2017-Jan-14 07:33N 47°35' W 122°21'0 0.0
2017-Jan-14 06:33N 47°35' W 122°21'0 0.0
2017-Jan-14 05:33N 47°35' W 122°21'0 0.0
2017-Jan-14 04:33N 47°35' W 122°21'0 0.0
2017-Jan-14 03:33N 47°35' W 122°21'0 0.0
2017-Jan-13 23:33N 47°35' W 122°21'0 0.0
2017-Jan-13 22:33N 47°35' W 122°21'1 1.0
2017-Jan-13 21:33N 47°34' W 122°21'0 0.0
2017-Jan-13 20:33N 47°34' W 122°21'0 0.0
2017-Jan-13 19:33N 47°34' W 122°21'0 0.0
2017-Jan-13 18:34N 47°34' W 122°21'0 0.0
2017-Jan-13 17:33N 47°34' W 122°21'1 1.0
2017-Jan-13 16:33N 47°35' W 122°21'1 0.8
2017-Jan-13 15:33N 47°36' W 122°22'5 5.0
2017-Jan-13 14:33N 47°39' W 122°28'6 6.0
2017-Jan-13 13:33N 47°45' W 122°27'7 6.6
2017-Jan-13 12:33N 47°51' W 122°29'7 7.2
2017-Jan-13 11:33N 47°57' W 122°35'10 8.3
2017-Jan-13 10:22N 48°06' W 122°40'14 7.7
2017-Jan-13 08:33N 48°20' W 122°47'7 7.3
2017-Jan-13 07:33N 48°27' W 122°45'9 9.2
2017-Jan-13 06:33N 48°36' W 122°45'8 8.3
2017-Jan-13 05:33N 48°44' W 122°46'5 0.3
2017-Jan-12 12:05N 48°50' W 122°45'5 1.5
2017-Jan-12 08:32N 48°44' W 122°45'6 5.7
2017-Jan-12 07:33N 48°39' W 122°43'6 6.1
2017-Jan-12 06:33N 48°33' W 122°45'5 5.0
2017-Jan-12 05:33N 48°28' W 122°44'5 4.2
2017-Jan-12 04:25N 48°23' W 122°44'25 6.5
2017-Jan-12 00:32N 47°59' W 122°35'8 7.9
2017-Jan-11 23:33N 47°52' W 122°28'7 7.1
2017-Jan-11 22:33N 47°45' W 122°26'6 6.4
2017-Jan-11 21:33N 47°39' W 122°27'5 5.4
2017-Jan-11 20:33N 47°36' W 122°21'1 1.2
2017-Jan-11 19:33N 47°34' W 122°21'0 0.0
2017-Jan-11 18:33N 47°34' W 122°21'0 0.0
2017-Jan-11 17:33N 47°34' W 122°21'0 0.0
2017-Jan-11 16:33N 47°34' W 122°21'0 0.2
2017-Jan-11 15:33N 47°35' W 122°21'0 0.2
2017-Jan-11 14:33N 47°34' W 122°21'0 0.0
2017-Jan-11 13:33N 47°34' W 122°21'0 0.0
2017-Jan-11 12:33N 47°34' W 122°21'0 0.0
2017-Jan-11 11:33N 47°34' W 122°21'0 0.0
2017-Jan-11 10:33N 47°34' W 122°21'0 0.0
2017-Jan-11 09:33N 47°34' W 122°21'0 0.0
2017-Jan-11 08:33N 47°34' W 122°21'1 0.9
2017-Jan-11 07:34N 47°35' W 122°21'0 0.0
2017-Jan-11 06:33N 47°35' W 122°21'0 0.2
2017-Jan-11 05:33N 47°35' W 122°21'1 1.1
2017-Jan-11 04:33N 47°34' W 122°21'0 0.0
2017-Jan-11 03:33N 47°34' W 122°21'0 0.0
2017-Jan-11 02:33N 47°34' W 122°21'0 0.1
2017-Jan-11 01:34N 47°34' W 122°21'0 0.0
2017-Jan-11 00:33N 47°34' W 122°21'0 0.0
2017-Jan-10 23:33N 47°34' W 122°21'0 0.0
2017-Jan-10 22:33N 47°34' W 122°21'0 0.0
2017-Jan-10 21:33N 47°34' W 122°21'0 0.0
2017-Jan-10 20:33N 47°34' W 122°21'0 0.0
2017-Jan-10 19:33N 47°34' W 122°21'0 0.0
2017-Jan-10 18:34N 47°34' W 122°21'0 0.0
2017-Jan-10 17:33N 47°34' W 122°21'1 1.1
2017-Jan-10 16:33N 47°36' W 122°21'1 1.2
2017-Jan-10 15:33N 47°34' W 122°21'1 1.1
2017-Jan-10 14:33N 47°35' W 122°21'0 0.0
2017-Jan-10 13:33N 47°35' W 122°21'0 0.0
2017-Jan-10 12:33N 47°35' W 122°21'0 0.0
2017-Jan-10 11:33N 47°35' W 122°21'0 0.0
2017-Jan-10 10:33N 47°35' W 122°21'0 0.0
2017-Jan-10 09:33N 47°35' W 122°21'0 0.0
2017-Jan-10 08:33N 47°35' W 122°21'0 0.0
2017-Jan-10 07:33N 47°35' W 122°21'0 0.0
2017-Jan-10 06:33N 47°35' W 122°21'0 0.0
2017-Jan-10 05:33N 47°35' W 122°21'0 0.0
2017-Jan-10 04:33N 47°35' W 122°21'0 0.0
2017-Jan-10 03:33N 47°35' W 122°21'0 0.0
2017-Jan-10 02:33N 47°35' W 122°21'0 0.0
2017-Jan-10 01:33N 47°35' W 122°21'0 0.0
2017-Jan-10 00:33N 47°35' W 122°21'0 0.0
2017-Jan-09 23:33N 47°35' W 122°21'0 0.0
2017-Jan-09 22:33N 47°35' W 122°21'0 0.0
2017-Jan-09 21:33N 47°35' W 122°21'0 0.0
2017-Jan-09 20:33N 47°35' W 122°21'0 0.0
2017-Jan-09 19:33N 47°35' W 122°21'0 0.3
2017-Jan-09 18:34N 47°35' W 122°21'0 0.3
2017-Jan-09 17:33N 47°35' W 122°21'0 0.3
2017-Jan-09 16:33N 47°35' W 122°21'1 0.7
2017-Jan-09 15:33N 47°34' W 122°21'0 0.0
2017-Jan-09 14:33N 47°34' W 122°21'0 0.0
2017-Jan-09 13:33N 47°34' W 122°21'0 0.0
2017-Jan-09 12:33N 47°34' W 122°21'0 0.0
2017-Jan-09 11:33N 47°34' W 122°21'0 0.0
2017-Jan-09 10:33N 47°34' W 122°21'  
Track history (hours):
 
Tides and Currents Weather Stations Pressure Air Temp Water Temp Dewpoint Dewpoint Depression Visibility Wind Speed Wind Dir Waves Ship Positions

Eagle

Owner: Harley Marine Services, INC, SEATTLE, WA. More information available from US FCC via Universal Licensing System and Coast Guard Vessel Documentation Center.

Last reported at 2017-Jan-19 10:32 UTC. Time now 2017-Jan-20 05:53 UTC.
Position N 48°50' W 122°46'.

Length 32 m; draft 4.5 m.

Type: Tow > 200 m length. MMSI: 366978690.

Date/timePositionNaut miles runAvg speedWind from/ knotsBaromVisibWave heightAir tempDewpointWater temp
2017-Jan-19 10:32N 48°50' W 122°46'3 2.6
2017-Jan-19 09:25N 48°47' W 122°47'3 2.9
2017-Jan-19 08:19N 48°51' W 122°47'3 3.9
2017-Jan-19 07:33N 48°48' W 122°46'7 6.8
2017-Jan-19 06:33N 48°41' W 122°43'8 7.6
2017-Jan-19 05:33N 48°34' W 122°45'6 6.1
2017-Jan-19 04:33N 48°32' W 122°36'0 0.2
2017-Jan-19 03:33N 48°31' W 122°36'0 0.0
2017-Jan-19 02:33N 48°31' W 122°36'0 0.0
2017-Jan-19 01:33N 48°31' W 122°36'0 0.0
2017-Jan-19 00:33N 48°31' W 122°36'0 0.0
2017-Jan-18 23:32N 48°31' W 122°36'0 0.0
2017-Jan-18 22:32N 48°31' W 122°36'0 0.0
2017-Jan-18 21:32N 48°31' W 122°36'0 0.0
2017-Jan-18 20:32N 48°31' W 122°36'0 0.0
2017-Jan-18 19:32N 48°31' W 122°36'0 0.0
2017-Jan-18 18:32N 48°31' W 122°36'0 0.0
2017-Jan-18 17:32N 48°31' W 122°36'0 0.0
2017-Jan-18 16:32N 48°31' W 122°36'0 0.0
2017-Jan-18 15:32N 48°31' W 122°36'0 0.0
2017-Jan-18 14:32N 48°31' W 122°36'0 0.0
2017-Jan-18 13:14N 48°31' W 122°36'0 0.0
2017-Jan-18 12:32N 48°31' W 122°36'0 0.0
2017-Jan-18 11:32N 48°31' W 122°36'0 0.0
2017-Jan-18 10:32N 48°31' W 122°36'0 0.0
2017-Jan-18 09:32N 48°31' W 122°36'0 0.0
2017-Jan-18 08:32N 48°31' W 122°36'0 0.0
2017-Jan-18 07:26N 48°31' W 122°36'0 0.0
2017-Jan-18 06:32N 48°31' W 122°36'0 0.0
2017-Jan-18 05:32N 48°31' W 122°36'0 0.0
2017-Jan-18 04:32N 48°31' W 122°36'0 0.0
2017-Jan-18 03:32N 48°31' W 122°36'0 0.0
2017-Jan-18 02:26N 48°31' W 122°36'0 0.0
2017-Jan-18 01:32N 48°31' W 122°36'0 0.0
2017-Jan-18 00:32N 48°31' W 122°36'0 0.0
2017-Jan-17 23:32N 48°31' W 122°36'0 0.0
2017-Jan-17 22:32N 48°31' W 122°36'0 0.0
2017-Jan-17 21:32N 48°31' W 122°36'0 0.3
2017-Jan-17 20:33N 48°32' W 122°36'4 4.2
2017-Jan-17 19:33N 48°36' W 122°36'7 7.1
2017-Jan-17 18:33N 48°42' W 122°43'7 6.5
2017-Jan-17 17:30N 48°48' W 122°45'1 0.7
2017-Jan-17 16:25N 48°48' W 122°44'2 1.9
2017-Jan-17 15:17N 48°50' W 122°45'1 1.2
2017-Jan-17 14:12N 48°51' W 122°47'4 5.2
2017-Jan-17 13:23N 48°46' W 122°47'7 7.9
2017-Jan-17 12:33N 48°41' W 122°42'7 7.3
2017-Jan-17 11:33N 48°33' W 122°45'6 6.1
2017-Jan-17 10:33N 48°27' W 122°44'27 6.5
2017-Jan-17 06:30N 48°01' W 122°37'9 9.2
2017-Jan-17 05:33N 47°54' W 122°29'8 8.3
2017-Jan-17 04:33N 47°46' W 122°26'8 7.6
2017-Jan-17 03:33N 47°39' W 122°27'6 5.8
2017-Jan-17 02:33N 47°35' W 122°21'0 0.2
2017-Jan-17 01:32N 47°34' W 122°21'0 0.0
2017-Jan-17 00:32N 47°34' W 122°21'0 0.0
2017-Jan-16 23:32N 47°34' W 122°21'0 0.0
2017-Jan-16 22:31N 47°34' W 122°21'0 0.0
2017-Jan-16 21:32N 47°34' W 122°21'0 0.0
2017-Jan-16 20:32N 47°34' W 122°21'0 0.0
2017-Jan-16 19:32N 47°34' W 122°21'0 0.1
2017-Jan-16 18:32N 47°34' W 122°21'0 0.0
2017-Jan-16 17:32N 47°34' W 122°21'0 0.0
2017-Jan-16 16:32N 47°34' W 122°21'0 0.0
2017-Jan-16 15:32N 47°34' W 122°21'0 0.0
2017-Jan-16 14:31N 47°34' W 122°21'0 0.0
2017-Jan-16 13:31N 47°34' W 122°21'0 0.0
2017-Jan-16 12:31N 47°34' W 122°21'0 0.0
2017-Jan-16 11:31N 47°34' W 122°21'0 0.0
2017-Jan-16 10:29N 47°34' W 122°21'0 0.0
2017-Jan-16 09:31N 47°34' W 122°21'0 0.0
2017-Jan-16 08:31N 47°34' W 122°21'0 0.0
2017-Jan-16 07:31N 47°34' W 122°21'0 0.0
2017-Jan-16 06:31N 47°34' W 122°21'0 0.0
2017-Jan-16 05:31N 47°34' W 122°21'0 0.0
2017-Jan-16 04:32N 47°34' W 122°21'0 0.0
2017-Jan-16 03:31N 47°34' W 122°21'0 0.0
2017-Jan-16 02:31N 47°34' W 122°21'0 0.0
2017-Jan-16 01:31N 47°34' W 122°21'0 0.0
2017-Jan-16 00:31N 47°34' W 122°21'0 0.0
2017-Jan-15 23:31N 47°34' W 122°21'0 0.0
2017-Jan-15 22:33N 47°34' W 122°21'0 0.0
2017-Jan-15 21:33N 47°34' W 122°21'0 0.0
2017-Jan-15 20:33N 47°34' W 122°21'0 0.0
2017-Jan-15 19:33N 47°34' W 122°21'0 0.0
2017-Jan-15 18:33N 47°34' W 122°21'0 0.0
2017-Jan-15 17:33N 47°34' W 122°21'0 0.0
2017-Jan-15 16:33N 47°34' W 122°21'0 0.0
2017-Jan-15 15:33N 47°34' W 122°21'0 0.0
2017-Jan-15 14:33N 47°34' W 122°21'1 1.0
2017-Jan-15 13:33N 47°35' W 122°21'0 0.0
2017-Jan-15 12:33N 47°35' W 122°21'0 0.0
2017-Jan-15 11:33N 47°35' W 122°21'0 0.0
2017-Jan-15 10:33N 47°35' W 122°21'0 0.0
2017-Jan-15 09:33N 47°35' W 122°21'0 0.0
2017-Jan-15 08:33N 47°35' W 122°21'0 0.0
2017-Jan-15 07:33N 47°35' W 122°21'0 0.0
2017-Jan-15 06:33N 47°35' W 122°21'0 0.0
2017-Jan-15 05:33N 47°35' W 122°21'0 0.0
2017-Jan-15 04:33N 47°35' W 122°21'0 0.0
2017-Jan-15 03:33N 47°35' W 122°21'0 0.0
2017-Jan-15 02:33N 47°35' W 122°21'0 0.0
2017-Jan-15 01:33N 47°35' W 122°21'0 0.0
2017-Jan-15 00:33N 47°35' W 122°21'0 0.0
2017-Jan-14 23:33N 47°35' W 122°21'0 0.0
2017-Jan-14 22:33N 47°35' W 122°21'0 0.0
2017-Jan-14 21:33N 47°35' W 122°21'0 0.0
2017-Jan-14 20:33N 47°35' W 122°21'0 0.0
2017-Jan-14 19:33N 47°35' W 122°21'0 0.0
2017-Jan-14 18:33N 47°35' W 122°21'0 0.0
2017-Jan-14 17:33N 47°35' W 122°21'0 0.0
2017-Jan-14 16:33N 47°35' W 122°21'0 0.0
2017-Jan-14 15:33N 47°35' W 122°21'0 0.0
2017-Jan-14 14:33N 47°35' W 122°21'0 0.0
2017-Jan-14 13:33N 47°35' W 122°21'0 0.0
2017-Jan-14 12:33N 47°35' W 122°21'0 0.0
2017-Jan-14 11:33N 47°35' W 122°21'0 0.0
2017-Jan-14 10:33N 47°35' W 122°21'0 0.0
2017-Jan-14 09:33N 47°35' W 122°21'0 0.0
2017-Jan-14 08:33N 47°35' W 122°21'0 0.0
2017-Jan-14 07:33N 47°35' W 122°21'0 0.0
2017-Jan-14 06:33N 47°35' W 122°21'0 0.0
2017-Jan-14 05:33N 47°35' W 122°21'0 0.0
2017-Jan-14 04:33N 47°35' W 122°21'0 0.0
2017-Jan-14 03:33N 47°35' W 122°21'0 0.0
2017-Jan-13 23:33N 47°35' W 122°21'0 0.0
2017-Jan-13 22:33N 47°35' W 122°21'1 1.0
2017-Jan-13 21:33N 47°34' W 122°21'0 0.0
2017-Jan-13 20:33N 47°34' W 122°21'0 0.0
2017-Jan-13 19:33N 47°34' W 122°21'0 0.0
2017-Jan-13 18:34N 47°34' W 122°21'0 0.0
2017-Jan-13 17:33N 47°34' W 122°21'1 1.0
2017-Jan-13 16:33N 47°35' W 122°21'1 0.8
2017-Jan-13 15:33N 47°36' W 122°22'5 5.0
2017-Jan-13 14:33N 47°39' W 122°28'6 6.0
2017-Jan-13 13:33N 47°45' W 122°27'7 6.6
2017-Jan-13 12:33N 47°51' W 122°29'7 7.2
2017-Jan-13 11:33N 47°57' W 122°35'10 8.3
2017-Jan-13 10:22N 48°06' W 122°40'14 7.7
2017-Jan-13 08:33N 48°20' W 122°47'7 7.3
2017-Jan-13 07:33N 48°27' W 122°45'9 9.2
2017-Jan-13 06:33N 48°36' W 122°45'8 8.3
2017-Jan-13 05:33N 48°44' W 122°46'5 0.3
2017-Jan-12 12:05N 48°50' W 122°45'5 1.5
2017-Jan-12 08:32N 48°44' W 122°45'6 5.7
2017-Jan-12 07:33N 48°39' W 122°43'6 6.1
2017-Jan-12 06:33N 48°33' W 122°45'5 5.0
2017-Jan-12 05:33N 48°28' W 122°44'5 4.2
2017-Jan-12 04:25N 48°23' W 122°44'25 6.5
2017-Jan-12 00:32N 47°59' W 122°35'8 7.9
2017-Jan-11 23:33N 47°52' W 122°28'7 7.1
2017-Jan-11 22:33N 47°45' W 122°26'6 6.4
2017-Jan-11 21:33N 47°39' W 122°27'5 5.4
2017-Jan-11 20:33N 47°36' W 122°21'1 1.2
2017-Jan-11 19:33N 47°34' W 122°21'0 0.0
2017-Jan-11 18:33N 47°34' W 122°21'0 0.0
2017-Jan-11 17:33N 47°34' W 122°21'0 0.0
2017-Jan-11 16:33N 47°34' W 122°21'0 0.2
2017-Jan-11 15:33N 47°35' W 122°21'0 0.2
2017-Jan-11 14:33N 47°34' W 122°21'0 0.0
2017-Jan-11 13:33N 47°34' W 122°21'0 0.0
2017-Jan-11 12:33N 47°34' W 122°21'0 0.0
2017-Jan-11 11:33N 47°34' W 122°21'0 0.0
2017-Jan-11 10:33N 47°34' W 122°21'0 0.0
2017-Jan-11 09:33N 47°34' W 122°21'0 0.0
2017-Jan-11 08:33N 47°34' W 122°21'1 0.9
2017-Jan-11 07:34N 47°35' W 122°21'0 0.0
2017-Jan-11 06:33N 47°35' W 122°21'0 0.2
2017-Jan-11 05:33N 47°35' W 122°21'1 1.1
2017-Jan-11 04:33N 47°34' W 122°21'0 0.0
2017-Jan-11 03:33N 47°34' W 122°21'0 0.0
2017-Jan-11 02:33N 47°34' W 122°21'0 0.1
2017-Jan-11 01:34N 47°34' W 122°21'0 0.0
2017-Jan-11 00:33N 47°34' W 122°21'0 0.0
2017-Jan-10 23:33N 47°34' W 122°21'0 0.0
2017-Jan-10 22:33N 47°34' W 122°21'0 0.0
2017-Jan-10 21:33N 47°34' W 122°21'0 0.0
2017-Jan-10 20:33N 47°34' W 122°21'0 0.0
2017-Jan-10 19:33N 47°34' W 122°21'0 0.0
2017-Jan-10 18:34N 47°34' W 122°21'0 0.0
2017-Jan-10 17:33N 47°34' W 122°21'1 1.1
2017-Jan-10 16:33N 47°36' W 122°21'1 1.2
2017-Jan-10 15:33N 47°34' W 122°21'1 1.1
2017-Jan-10 14:33N 47°35' W 122°21'0 0.0
2017-Jan-10 13:33N 47°35' W 122°21'0 0.0
2017-Jan-10 12:33N 47°35' W 122°21'0 0.0
2017-Jan-10 11:33N 47°35' W 122°21'0 0.0
2017-Jan-10 10:33N 47°35' W 122°21'0 0.0
2017-Jan-10 09:33N 47°35' W 122°21'0 0.0
2017-Jan-10 08:33N 47°35' W 122°21'0 0.0
2017-Jan-10 07:33N 47°35' W 122°21'0 0.0
2017-Jan-10 06:33N 47°35' W 122°21'0 0.0
2017-Jan-10 05:33N 47°35' W 122°21'0 0.0
2017-Jan-10 04:33N 47°35' W 122°21'0 0.0
2017-Jan-10 03:33N 47°35' W 122°21'0 0.0
2017-Jan-10 02:33N 47°35' W 122°21'0 0.0
2017-Jan-10 01:33N 47°35' W 122°21'0 0.0
2017-Jan-10 00:33N 47°35' W 122°21'0 0.0
2017-Jan-09 23:33N 47°35' W 122°21'0 0.0
2017-Jan-09 22:33N 47°35' W 122°21'0 0.0
2017-Jan-09 21:33N 47°35' W 122°21'0 0.0
2017-Jan-09 20:33N 47°35' W 122°21'0 0.0
2017-Jan-09 19:33N 47°35' W 122°21'0 0.3
2017-Jan-09 18:34N 47°35' W 122°21'0 0.3
2017-Jan-09 17:33N 47°35' W 122°21'0 0.3
2017-Jan-09 16:33N 47°35' W 122°21'1 0.7
2017-Jan-09 15:33N 47°34' W 122°21'0 0.0
2017-Jan-09 14:33N 47°34' W 122°21'0 0.0
2017-Jan-09 13:33N 47°34' W 122°21'0 0.0
2017-Jan-09 12:33N 47°34' W 122°21'0 0.0
2017-Jan-09 11:33N 47°34' W 122°21'0 0.0
2017-Jan-09 10:33N 47°34' W 122°21'  

Dump ship's entire track history